createdAt,value
2018-07-28T00:01:44.387Z,100282.12
2018-07-28T00:04:17.783Z,100276.73
2018-07-28T00:06:51.220Z,100276.52
2018-07-28T00:09:24.585Z,100281.52
2018-07-28T00:11:58.028Z,100264.19
2018-07-28T00:14:31.426Z,100278.30
2018-07-28T00:17:04.942Z,100270.53
2018-07-28T00:19:38.346Z,100266.64
2018-07-28T00:22:11.736Z,100262.50
2018-07-28T00:24:45.110Z,100271.30
2018-07-28T00:27:18.573Z,100268.89
2018-07-28T00:29:51.953Z,100262.77
2018-07-28T00:32:25.354Z,100260.32
2018-07-28T00:34:58.698Z,100255.35
2018-07-28T00:37:32.175Z,100258.70
2018-07-28T00:40:06.146Z,100257.08
2018-07-28T00:42:39.556Z,100247.77
2018-07-28T00:45:12.946Z,100242.94
2018-07-28T00:47:46.358Z,100241.88
2018-07-28T00:50:19.747Z,100229.95
2018-07-28T00:52:53.160Z,100232.34
2018-07-28T00:55:26.535Z,100230.36
2018-07-28T00:57:59.935Z,100218.77
2018-07-28T01:00:33.367Z,100216.18
2018-07-28T01:03:06.775Z,100212.75
2018-07-28T01:05:40.207Z,100208.02
2018-07-28T01:08:13.613Z,100207.88
2018-07-28T01:10:47.031Z,100205.17
2018-07-28T01:13:20.436Z,100210.06
2018-07-28T01:15:53.810Z,100206.19
2018-07-28T01:18:27.208Z,100205.13
2018-07-28T01:21:00.635Z,100202.44
2018-07-28T01:23:34.088Z,100198.91
2018-07-28T01:26:07.479Z,100194.50
2018-07-28T01:28:40.890Z,100193.00
2018-07-28T01:31:14.279Z,100196.22
2018-07-28T01:33:48.590Z,100190.29
2018-07-28T01:36:21.983Z,100186.76
2018-07-28T01:38:55.407Z,100170.20
2018-07-28T01:41:28.811Z,100171.85
2018-07-28T01:44:02.231Z,100171.38
2018-07-28T01:46:35.607Z,100172.56
2018-07-28T01:49:09.103Z,100175.89
2018-07-28T01:51:42.522Z,100176.27
2018-07-28T01:54:16.652Z,100169.55
2018-07-28T01:56:50.043Z,100161.97
2018-07-28T01:59:23.464Z,100155.00
2018-07-28T02:01:56.865Z,100150.97
2018-07-28T02:04:30.347Z,100148.84
2018-07-28T02:07:03.775Z,100148.25
2018-07-28T02:09:37.205Z,100145.06
2018-07-28T02:12:10.600Z,100148.63
2018-07-28T02:14:44.028Z,100144.58
2018-07-28T02:17:17.491Z,100137.82
2018-07-28T02:19:50.920Z,100135.13
2018-07-28T02:22:24.340Z,100135.35
2018-07-28T02:24:57.763Z,100135.59
2018-07-28T02:27:31.171Z,100128.13
2018-07-28T02:30:05.190Z,100128.84
2018-07-28T02:32:39.549Z,100131.56
2018-07-28T02:35:12.968Z,100120.80
2018-07-28T02:37:46.398Z,100113.36
2018-07-28T02:40:19.820Z,100115.13
2018-07-28T02:42:53.299Z,100107.68
2018-07-28T02:45:26.697Z,100111.33
2018-07-28T02:48:00.120Z,100100.81
2018-07-28T02:50:33.573Z,100099.13
2018-07-28T02:53:07.121Z,100098.69
2018-07-28T02:55:40.504Z,100104.11
2018-07-28T02:58:13.927Z,100096.91
2018-07-28T03:00:47.324Z,100097.73
2018-07-28T03:03:20.962Z,100099.86
2018-07-28T03:05:54.351Z,100097.33
2018-07-28T03:08:27.812Z,100097.31
2018-07-28T03:11:01.221Z,100096.59
2018-07-28T03:13:34.797Z,100095.55
2018-07-28T03:16:12.624Z,100094.00
2018-07-28T03:18:46.060Z,100091.98
2018-07-28T03:21:19.495Z,100091.37
2018-07-28T03:23:52.871Z,100088.75
2018-07-28T03:26:26.363Z,100096.20
2018-07-28T03:28:59.768Z,100099.28
2018-07-28T03:31:33.171Z,100094.93
2018-07-28T03:34:06.841Z,100091.16
2018-07-28T03:36:40.220Z,100088.08
2018-07-28T03:39:13.654Z,100085.23
2018-07-28T03:41:46.984Z,100086.28
2018-07-28T03:44:20.831Z,100081.78
2018-07-28T03:46:54.219Z,100084.03
2018-07-28T03:49:27.595Z,100077.41
2018-07-28T03:52:00.951Z,100065.81
2018-07-28T03:54:34.395Z,100061.70
2018-07-28T03:57:07.773Z,100059.47
2018-07-28T03:59:41.164Z,100052.15
2018-07-28T04:02:14.607Z,100058.04
2018-07-28T04:04:48.395Z,100054.05
2018-07-28T04:07:21.763Z,100061.73
2018-07-28T04:09:55.200Z,100059.83
2018-07-28T04:12:28.562Z,100059.25
2018-07-28T04:15:01.956Z,100055.70
2018-07-28T04:17:39.561Z,100047.08
2018-07-28T04:20:13.076Z,100048.38
2018-07-28T04:22:46.896Z,100043.17
2018-07-28T04:25:20.634Z,100043.77
2018-07-28T04:27:54.010Z,100046.86
2018-07-28T04:30:27.414Z,100038.83
2018-07-28T04:33:00.772Z,100030.70
2018-07-28T04:35:34.178Z,100030.20
2018-07-28T04:38:07.570Z,100033.06
2018-07-28T04:40:40.996Z,100033.17
2018-07-28T04:43:14.352Z,100031.02
2018-07-28T04:45:47.767Z,100034.45
2018-07-28T04:48:21.120Z,100039.41
2018-07-28T04:50:54.504Z,100047.86
2018-07-28T04:53:27.981Z,100047.94
2018-07-28T04:56:01.366Z,100042.44
2018-07-28T04:58:34.820Z,100036.98
2018-07-28T05:01:08.275Z,100030.13
2018-07-28T05:03:41.673Z,100028.77
2018-07-28T05:06:15.035Z,100027.80
2018-07-28T05:08:48.381Z,100021.30
2018-07-28T05:11:21.857Z,100015.98
2018-07-28T05:13:55.209Z,100016.94
2018-07-28T05:16:28.621Z,100016.78
2018-07-28T05:19:01.975Z,100017.81
2018-07-28T05:21:35.405Z,100014.09
2018-07-28T05:24:08.828Z,100008.27
2018-07-28T05:26:42.247Z,100008.56
2018-07-28T05:29:15.615Z,100008.84
2018-07-28T05:31:49.065Z,99998.73
2018-07-28T05:34:22.476Z,100004.59
2018-07-28T05:36:55.875Z,100004.87
2018-07-28T05:39:29.248Z,99995.98
2018-07-28T05:42:02.698Z,100002.95
2018-07-28T05:44:36.079Z,99999.90
2018-07-28T05:47:09.474Z,100005.98
2018-07-28T05:49:42.838Z,100006.09
2018-07-28T05:52:16.339Z,99996.71
2018-07-28T05:54:49.687Z,99998.05
2018-07-28T05:57:23.047Z,99992.12
2018-07-28T05:59:56.411Z,99998.81
2018-07-28T06:02:29.894Z,99997.84
2018-07-28T06:05:03.203Z,99995.67
2018-07-28T06:07:36.637Z,99993.87
2018-07-28T06:10:10.046Z,99986.80
2018-07-28T06:12:43.457Z,99984.78
2018-07-28T06:15:16.848Z,99979.72
2018-07-28T06:17:50.232Z,99979.00
2018-07-28T06:20:23.714Z,99983.30
2018-07-28T06:22:57.092Z,99985.67
2018-07-28T06:25:30.465Z,99978.80
2018-07-28T06:28:03.870Z,99978.06
2018-07-28T06:30:37.243Z,99980.47
2018-07-28T06:33:10.663Z,99979.55
2018-07-28T06:35:44.042Z,99983.78
2018-07-28T06:38:17.536Z,99986.98
2018-07-28T06:40:50.958Z,99983.48
2018-07-28T06:43:24.337Z,99979.71
2018-07-28T06:45:57.806Z,99970.05
2018-07-28T06:48:31.175Z,99975.20
2018-07-28T06:51:04.630Z,99969.23
2018-07-28T06:53:38.066Z,99967.00
2018-07-28T06:56:11.452Z,99960.43
2018-07-28T06:58:44.803Z,99962.09
2018-07-28T07:01:18.352Z,99970.47
2018-07-28T07:03:51.699Z,99963.11
2018-07-28T07:06:25.933Z,99966.53
2018-07-28T07:09:08.802Z,99949.42
2018-07-28T07:11:42.212Z,99957.27
2018-07-28T07:14:15.593Z,99951.82
2018-07-28T07:16:48.976Z,99946.77
2018-07-28T07:19:22.371Z,99943.53
2018-07-28T07:21:55.770Z,99946.19
2018-07-28T07:24:29.148Z,99947.20
2018-07-28T07:27:02.531Z,99951.11
2018-07-28T07:29:35.921Z,99950.42
2018-07-28T07:32:09.335Z,99950.44
2018-07-28T07:34:42.742Z,99951.06
2018-07-28T07:37:16.735Z,99946.80
2018-07-28T07:39:50.132Z,99931.70
2018-07-28T07:42:23.556Z,99931.91
2018-07-28T07:44:57.048Z,99924.67
2018-07-28T07:47:30.464Z,99911.36
2018-07-28T07:50:03.929Z,99914.66
2018-07-28T07:52:37.303Z,99922.36
2018-07-28T07:55:10.688Z,99910.36
2018-07-28T07:57:44.069Z,99913.09
2018-07-28T08:00:17.448Z,99915.04
2018-07-28T08:02:50.846Z,99912.09
2018-07-28T08:05:24.185Z,99918.33
2018-07-28T08:07:57.547Z,99907.08
2018-07-28T08:10:30.917Z,99914.67
2018-07-28T08:13:04.361Z,99922.57
2018-07-28T08:15:37.765Z,99929.81
2018-07-28T08:18:11.152Z,99926.88
2018-07-28T08:20:44.534Z,99933.84
2018-07-28T08:23:17.927Z,99928.84
2018-07-28T08:25:51.299Z,99932.67
2018-07-28T08:28:24.679Z,99928.22
2018-07-28T08:30:58.053Z,99926.21
2018-07-28T08:33:31.593Z,99920.16
2018-07-28T08:36:05.005Z,99912.36
2018-07-28T08:38:38.401Z,99909.44
2018-07-28T08:41:11.754Z,99904.80
2018-07-28T08:43:45.435Z,99902.58
2018-07-28T08:46:18.819Z,99901.25
2018-07-28T08:48:52.324Z,99899.69
2018-07-28T08:51:25.690Z,99889.48
2018-07-28T08:53:59.088Z,99893.39
2018-07-28T08:56:32.454Z,99885.64
2018-07-28T08:59:05.943Z,99891.16
2018-07-28T09:01:39.298Z,99878.64
2018-07-28T09:04:13.320Z,99875.50
2018-07-28T09:06:46.700Z,99878.33
2018-07-28T09:09:20.661Z,99868.09
2018-07-28T09:11:54.217Z,99876.37
2018-07-28T09:14:27.619Z,99874.55
2018-07-28T09:17:00.980Z,99868.67
2018-07-28T09:19:34.443Z,99861.21
2018-07-28T09:22:07.839Z,99869.86
2018-07-28T09:24:41.287Z,99864.63
2018-07-28T09:27:14.696Z,99872.58
2018-07-28T09:29:48.082Z,99868.91
2018-07-28T09:32:21.470Z,99878.83
2018-07-28T09:34:55.077Z,99873.68
2018-07-28T09:37:28.460Z,99878.05
2018-07-28T09:40:01.869Z,99868.50
2018-07-28T09:42:35.763Z,99860.91
2018-07-28T09:45:09.141Z,99849.49
2018-07-28T09:47:42.511Z,99851.31
2018-07-28T09:50:15.908Z,99840.09
2018-07-28T09:52:49.291Z,99839.21
2018-07-28T09:55:22.728Z,99836.26
2018-07-28T09:57:56.109Z,99842.88
2018-07-28T10:00:34.825Z,99839.71
2018-07-28T10:03:08.247Z,99839.91
2018-07-28T10:05:41.652Z,99850.90
2018-07-28T10:08:15.050Z,99839.63
2018-07-28T10:10:48.415Z,99836.80
2018-07-28T10:13:21.802Z,99831.88
2018-07-28T10:15:55.159Z,99828.83
2018-07-28T10:18:28.539Z,99830.98
2018-07-28T10:21:02.000Z,99822.06
2018-07-28T10:23:35.399Z,99820.19
2018-07-28T10:26:08.890Z,99832.36
2018-07-28T10:28:42.305Z,99826.82
2018-07-28T10:31:17.367Z,99828.16
2018-07-28T10:33:50.825Z,99830.14
2018-07-28T10:36:24.274Z,99816.98
2018-07-28T10:38:57.569Z,99815.62
2018-07-28T10:41:30.981Z,99820.06
2018-07-28T10:44:04.383Z,99816.93
2018-07-28T10:46:37.736Z,99813.38
2018-07-28T10:49:11.161Z,99804.29
2018-07-28T10:51:44.607Z,99804.52
2018-07-28T10:54:17.999Z,99804.42
2018-07-28T10:56:51.338Z,99805.42
2018-07-28T10:59:24.708Z,99802.17
2018-07-28T11:01:58.071Z,99800.92
2018-07-28T11:04:31.446Z,99807.24
2018-07-28T11:07:05.013Z,99800.72
2018-07-28T11:09:38.398Z,99799.11
2018-07-28T11:12:11.828Z,99802.64
2018-07-28T11:14:45.268Z,99805.73
2018-07-28T11:17:18.630Z,99797.75
2018-07-28T11:19:52.031Z,99806.75
2018-07-28T11:22:25.404Z,99782.88
2018-07-28T11:24:58.812Z,99773.60
2018-07-28T11:27:32.180Z,99773.72
2018-07-28T11:30:06.020Z,99771.47
2018-07-28T11:32:50.731Z,99762.38
2018-07-28T11:35:35.577Z,99769.43
2018-07-28T11:38:33.111Z,99760.28
2018-07-28T11:41:17.784Z,99749.07
2018-07-28T11:44:02.326Z,99741.80
2018-07-28T11:46:35.718Z,99740.20
2018-07-28T11:49:09.081Z,99735.30
2018-07-28T11:51:42.468Z,99734.37
2018-07-28T11:54:15.815Z,99731.08
2018-07-28T11:56:49.194Z,99730.83
2018-07-28T11:59:22.527Z,99727.42
2018-07-28T12:01:55.899Z,99729.69
2018-07-28T12:04:29.273Z,99722.42
2018-07-28T12:07:02.652Z,99726.37
2018-07-28T12:09:36.015Z,99726.91
2018-07-28T12:12:09.376Z,99729.31
2018-07-28T12:14:42.741Z,99733.53
2018-07-28T12:17:16.107Z,99733.59
2018-07-28T12:19:49.483Z,99725.77
2018-07-28T12:22:22.870Z,99720.98
2018-07-28T12:24:56.223Z,99706.13
2018-07-28T12:27:29.600Z,99696.94
2018-07-28T12:30:03.001Z,99692.92
2018-07-28T12:32:36.430Z,99689.13
2018-07-28T12:35:09.805Z,99685.44
2018-07-28T12:37:43.275Z,99691.98
2018-07-28T12:40:16.652Z,99684.03
2018-07-28T12:42:50.022Z,99687.59
2018-07-28T12:45:23.388Z,99690.03
2018-07-28T12:47:56.773Z,99697.74
2018-07-28T12:50:30.128Z,99725.56
2018-07-28T12:53:03.556Z,99776.66
2018-07-28T12:55:36.954Z,99813.10
2018-07-28T12:58:10.355Z,99812.55
2018-07-28T13:00:43.727Z,99811.33
2018-07-28T13:03:17.151Z,99813.73
2018-07-28T13:05:50.847Z,99822.86
2018-07-28T13:08:24.270Z,99822.75
2018-07-28T13:10:57.663Z,99825.53
2018-07-28T13:13:31.046Z,99837.62
2018-07-28T13:16:04.446Z,99851.03
2018-07-28T13:18:37.832Z,99866.99
2018-07-28T13:21:11.233Z,99891.64
2018-07-28T13:23:44.652Z,99905.91
2018-07-28T13:26:18.017Z,99906.00
2018-07-28T13:28:51.397Z,99910.31
2018-07-28T13:31:24.784Z,99909.05
2018-07-28T13:33:58.159Z,99905.14
2018-07-28T13:36:31.557Z,99913.63
2018-07-28T13:39:06.919Z,99914.73
2018-07-28T13:41:40.298Z,99914.05
2018-07-28T13:44:13.644Z,99912.77
2018-07-28T13:46:47.056Z,99913.41
2018-07-28T13:49:20.499Z,99921.67
2018-07-28T13:51:53.871Z,99930.94
2018-07-28T13:54:27.226Z,99942.23
2018-07-28T13:57:00.607Z,99941.81
2018-07-28T13:59:33.996Z,99942.04
2018-07-28T14:02:07.378Z,99949.64
2018-07-28T14:04:40.747Z,99959.20
2018-07-28T14:07:14.135Z,99959.75
2018-07-28T14:09:47.547Z,99959.62
2018-07-28T14:12:20.969Z,99954.13
2018-07-28T14:14:54.360Z,99952.47
2018-07-28T14:17:27.740Z,99953.56
2018-07-28T14:20:01.221Z,99952.94
2018-07-28T14:22:34.734Z,99953.28
2018-07-28T14:25:08.267Z,99957.88
2018-07-28T14:27:41.648Z,99957.67
2018-07-28T14:30:15.000Z,99964.39
2018-07-28T14:32:49.043Z,99966.97
2018-07-28T14:35:22.380Z,99969.56
2018-07-28T14:37:55.764Z,99963.23
2018-07-28T14:40:29.631Z,99966.61
2018-07-28T14:43:03.142Z,99955.53
2018-07-28T14:45:36.964Z,99955.37
2018-07-28T14:48:10.432Z,99954.09
2018-07-28T14:50:43.792Z,99949.45
2018-07-28T14:53:17.190Z,99955.41
2018-07-28T14:55:51.855Z,99961.72
2018-07-28T14:58:25.277Z,99955.31
2018-07-28T15:00:58.628Z,99954.72
2018-07-28T15:03:32.043Z,99956.39
2018-07-28T15:06:05.420Z,99953.78
2018-07-28T15:08:38.804Z,99954.83
2018-07-28T15:11:12.427Z,99953.53
2018-07-28T15:13:45.807Z,99958.74
2018-07-28T15:16:19.169Z,99951.97
2018-07-28T15:18:52.531Z,99947.22
2018-07-28T15:21:25.941Z,99941.77
2018-07-28T15:23:59.582Z,99945.69
2018-07-28T15:26:32.984Z,99944.49
2018-07-28T15:29:06.391Z,99948.00
2018-07-28T15:31:40.048Z,99941.14
2018-07-28T15:34:13.536Z,99931.91
2018-07-28T15:36:47.089Z,99932.02
2018-07-28T15:39:20.724Z,99929.30
2018-07-28T15:41:54.275Z,99933.63
2018-07-28T15:44:27.912Z,99941.20
2018-07-28T15:47:02.308Z,99950.26
2018-07-28T15:49:35.966Z,99952.69
2018-07-28T15:52:09.524Z,99959.80
2018-07-28T15:54:43.095Z,99970.08
2018-07-28T15:57:16.618Z,99973.00
2018-07-28T15:59:50.140Z,99977.32
2018-07-28T16:02:23.711Z,99974.19
2018-07-28T16:04:57.679Z,99976.05
2018-07-28T16:07:31.256Z,99990.30
2018-07-28T16:10:05.035Z,99992.23
2018-07-28T16:12:38.397Z,100002.06
2018-07-28T16:15:11.788Z,99999.52
2018-07-28T16:17:45.291Z,99996.02
2018-07-28T16:20:18.795Z,99998.58
2018-07-28T16:22:52.656Z,99991.52
2018-07-28T16:25:26.269Z,99988.48
2018-07-28T16:27:59.813Z,99991.88
2018-07-28T16:30:33.488Z,99987.38
2018-07-28T16:33:07.296Z,99987.39
2018-07-28T16:35:41.002Z,99988.98
2018-07-28T16:38:16.873Z,99991.16
2018-07-28T16:40:50.959Z,99991.47
2018-07-28T16:43:24.592Z,100004.14
2018-07-28T16:45:58.264Z,99995.55
2018-07-28T16:48:31.953Z,99989.06
2018-07-28T16:51:05.919Z,99986.52
2018-07-28T16:53:40.827Z,99983.26
2018-07-28T16:56:14.577Z,100001.77
2018-07-28T16:58:48.173Z,100004.80
2018-07-28T17:01:21.820Z,100013.47
2018-07-28T17:03:55.532Z,100026.92
2018-07-28T17:06:29.954Z,100028.17
2018-07-28T17:09:04.626Z,100035.91
2018-07-28T17:11:38.566Z,100031.38
2018-07-28T17:14:12.672Z,100039.92
2018-07-28T17:16:46.409Z,100046.31
2018-07-28T17:19:20.603Z,100057.74
2018-07-28T17:21:54.157Z,100055.95
2018-07-28T17:24:27.759Z,100052.30
2018-07-28T17:27:01.346Z,100053.89
2018-07-28T17:29:34.980Z,100056.66
2018-07-28T17:32:09.290Z,100046.14
2018-07-28T17:34:42.835Z,100046.26
2018-07-28T17:37:17.164Z,100059.60
2018-07-28T17:39:50.793Z,100071.45
2018-07-28T17:42:24.963Z,100089.69
2018-07-28T17:44:58.554Z,100096.13
2018-07-28T17:47:32.184Z,100104.13
2018-07-28T17:50:06.138Z,100101.63
2018-07-28T17:52:39.790Z,100103.69
2018-07-28T17:55:13.554Z,100119.45
2018-07-28T17:57:47.918Z,100132.19
2018-07-28T18:00:22.389Z,100129.36
2018-07-28T18:02:56.577Z,100121.41
2018-07-28T18:05:30.660Z,100131.09
2018-07-28T18:08:04.114Z,100119.11
2018-07-28T18:10:37.888Z,100118.30
2018-07-28T18:13:11.374Z,100124.83
2018-07-28T18:15:44.768Z,100133.37
2018-07-28T18:18:18.529Z,100128.81
2018-07-28T18:20:51.978Z,100131.64
2018-07-28T18:23:26.122Z,100143.25
2018-07-28T18:25:59.689Z,100147.42
2018-07-28T18:28:33.144Z,100156.79
2018-07-28T18:31:07.588Z,100153.95
2018-07-28T18:33:41.045Z,100156.95
2018-07-28T18:36:15.391Z,100164.02
2018-07-28T18:38:52.167Z,100178.30
2018-07-28T18:41:26.457Z,100217.01
2018-07-28T18:44:00.068Z,100210.84
2018-07-28T18:46:33.783Z,100207.92
2018-07-28T18:49:07.200Z,100203.21
2018-07-28T18:51:40.734Z,100237.08
2018-07-28T18:54:14.152Z,100253.25
2018-07-28T18:56:47.791Z,100264.25
2018-07-28T19:00:24.940Z,100246.72
2018-07-28T19:02:58.731Z,100258.45
2018-07-28T19:05:32.545Z,100257.44
2018-07-28T19:08:06.427Z,100239.08
2018-07-28T19:10:40.411Z,100220.24
2018-07-28T19:13:19.196Z,100219.05
2018-07-28T19:15:52.699Z,100225.48
2018-07-28T19:18:31.717Z,100232.88
2018-07-28T19:21:06.534Z,100237.03
2018-07-28T19:23:45.457Z,100226.84
2018-07-28T19:26:19.124Z,100240.14
2018-07-28T19:29:56.815Z,100259.37
2018-07-28T19:32:31.771Z,100280.61
2018-07-28T19:35:06.163Z,100292.36
2018-07-28T19:37:40.717Z,100292.02
2018-07-28T19:40:15.085Z,100299.02
2018-07-28T19:42:52.292Z,100303.30
2018-07-28T19:45:27.495Z,100316.79
2018-07-28T19:48:01.080Z,100315.76
2018-07-28T19:50:34.529Z,100316.82
2018-07-28T19:53:07.900Z,100319.91
2018-07-28T19:55:41.288Z,100315.14
2018-07-28T19:58:20.987Z,100324.98
2018-07-28T20:00:54.390Z,100332.11
2018-07-28T20:03:27.764Z,100342.63
2018-07-28T20:06:01.188Z,100352.47
2018-07-28T20:08:34.711Z,100365.52
2018-07-28T20:11:08.106Z,100359.00
2018-07-28T20:13:41.478Z,100355.09
2018-07-28T20:16:14.953Z,100365.28
2018-07-28T20:18:49.154Z,100371.64
2018-07-28T20:21:22.988Z,100375.08
2018-07-28T20:23:56.336Z,100379.70
2018-07-28T20:26:29.996Z,100378.75
2018-07-28T20:29:03.411Z,100384.19
2018-07-28T20:31:36.823Z,100402.17
2018-07-28T20:34:10.263Z,100420.14
2018-07-28T20:36:45.186Z,100421.45
2018-07-28T20:39:19.378Z,100419.64
2018-07-28T20:41:52.767Z,100414.88
2018-07-28T20:44:26.423Z,100421.73
2018-07-28T20:47:00.251Z,100425.07
2018-07-28T20:49:33.815Z,100431.32
2018-07-28T20:52:07.340Z,100429.89
2018-07-28T20:54:41.304Z,100432.71
2018-07-28T20:57:14.736Z,100441.57
2018-07-28T20:59:48.100Z,100451.81
2018-07-28T21:02:21.482Z,100446.13
2018-07-28T21:04:55.483Z,100443.13
2018-07-28T21:07:28.943Z,100463.12
2018-07-28T21:10:03.657Z,100462.19
2018-07-28T21:12:37.128Z,100478.50
2018-07-28T21:15:10.891Z,100490.28
2018-07-28T21:17:44.320Z,100480.54
2018-07-28T21:20:19.241Z,100457.80
2018-07-28T21:22:52.957Z,100436.47
2018-07-28T21:25:26.352Z,100443.77
2018-07-28T21:28:00.730Z,100436.59
2018-07-28T21:30:34.185Z,100444.19
2018-07-28T21:33:07.571Z,100457.86
2018-07-28T21:35:40.953Z,100463.27
2018-07-28T21:38:14.331Z,100468.23
2018-07-28T21:40:47.772Z,100459.91
2018-07-28T21:43:21.233Z,100446.49
2018-07-28T21:45:54.592Z,100447.64
2018-07-28T21:48:27.980Z,100437.92
2018-07-28T21:51:01.379Z,100423.22
2018-07-28T21:53:34.826Z,100432.09
2018-07-28T21:56:08.208Z,100451.02
2018-07-28T21:58:41.602Z,100464.20
2018-07-28T22:01:16.992Z,100493.73
2018-07-28T22:03:50.436Z,100531.70
2018-07-28T22:06:23.779Z,100555.75
2018-07-28T22:08:57.233Z,100569.31
2018-07-28T22:11:30.618Z,100558.84
2018-07-28T22:14:04.055Z,100548.22
2018-07-28T22:16:38.176Z,100537.60
2018-07-28T22:19:11.879Z,100519.70
2018-07-28T22:21:45.269Z,100506.72
2018-07-28T22:24:18.916Z,100506.36
2018-07-28T22:26:53.212Z,100507.03
2018-07-28T22:29:26.590Z,100494.08
2018-07-28T22:32:00.279Z,100494.52
2018-07-28T22:34:33.708Z,100490.45
2018-07-28T22:37:07.883Z,100498.33
2018-07-28T22:39:41.637Z,100493.80
2018-07-28T22:42:15.190Z,100495.77
2018-07-28T22:44:49.102Z,100497.25
2018-07-28T22:47:23.380Z,100506.17
2018-07-28T22:49:56.925Z,100516.97
2018-07-28T22:52:30.737Z,100522.27
2018-07-28T22:55:04.992Z,100527.91
2018-07-28T22:57:39.167Z,100532.19
2018-07-28T23:00:13.202Z,100528.95
2018-07-28T23:02:47.335Z,100536.55
2018-07-28T23:05:21.260Z,100540.67
2018-07-28T23:07:55.230Z,100550.58
2018-07-28T23:10:29.215Z,100556.31
2018-07-28T23:13:03.294Z,100556.04
2018-07-28T23:15:37.011Z,100553.83
2018-07-28T23:18:10.495Z,100556.04
2018-07-28T23:20:44.522Z,100560.88
2018-07-28T23:23:18.440Z,100564.70
2018-07-28T23:25:52.587Z,100571.45
2018-07-28T23:28:26.290Z,100570.81
2018-07-28T23:31:00.060Z,100575.72
2018-07-28T23:33:34.704Z,100563.16
2018-07-28T23:36:08.442Z,100563.41
2018-07-28T23:38:42.348Z,100563.86
2018-07-28T23:41:16.720Z,100564.52
2018-07-28T23:43:50.648Z,100573.34
2018-07-28T23:46:24.152Z,100571.94
2018-07-28T23:48:57.659Z,100563.15
2018-07-28T23:51:31.054Z,100561.93
2018-07-28T23:54:04.588Z,100566.47
2018-07-28T23:56:37.985Z,100565.92
2018-07-28T23:59:11.498Z,100561.10
